sensor_id;sensor_type;location;lat;lon;timestamp;temperature;humidity
52058;DHT22;38063;53.210;6.504;2024-01-25T00:01:19;7.10;99.90
52058;DHT22;38063;53.210;6.504;2024-01-25T00:03:45;7.40;99.90
52058;DHT22;38063;53.210;6.504;2024-01-25T00:06:10;7.10;99.90
52058;DHT22;38063;53.210;6.504;2024-01-25T00:08:36;7.10;99.90
52058;DHT22;38063;53.210;6.504;2024-01-25T00:11:02;7.10;99.90
52058;DHT22;38063;53.210;6.504;2024-01-25T00:13:28;7.10;99.90
52058;DHT22;38063;53.210;6.504;2024-01-25T00:15:54;7.00;99.90
52058;DHT22;38063;53.210;6.504;2024-01-25T00:18:20;7.00;99.90
52058;DHT22;38063;53.210;6.504;2024-01-25T00:20:46;7.00;99.90
52058;DHT22;38063;53.210;6.504;2024-01-25T00:23:11;6.90;99.90
52058;DHT22;38063;53.210;6.504;2024-01-25T00:25:37;6.90;99.90
52058;DHT22;38063;53.210;6.504;2024-01-25T00:28:03;6.90;99.90
52058;DHT22;38063;53.210;6.504;2024-01-25T00:30:29;6.80;99.90
52058;DHT22;38063;53.210;6.504;2024-01-25T00:32:56;6.90;99.90
52058;DHT22;38063;53.210;6.504;2024-01-25T00:35:22;6.80;99.90
52058;DHT22;38063;53.210;6.504;2024-01-25T00:37:48;6.80;99.90
52058;DHT22;38063;53.210;6.504;2024-01-25T00:40:14;6.70;99.90
52058;DHT22;38063;53.210;6.504;2024-01-25T00:42:44;6.70;99.90
52058;DHT22;38063;53.210;6.504;2024-01-25T00:45:14;6.60;99.90
52058;DHT22;38063;53.210;6.504;2024-01-25T00:47:40;6.60;99.90
52058;DHT22;38063;53.210;6.504;2024-01-25T00:50:06;6.50;99.90
52058;DHT22;38063;53.210;6.504;2024-01-25T00:52:32;6.50;99.90
52058;DHT22;38063;53.210;6.504;2024-01-25T00:54:58;6.40;99.90
52058;DHT22;38063;53.210;6.504;2024-01-25T00:57:24;6.40;99.90
52058;DHT22;38063;53.210;6.504;2024-01-25T00:59:50;6.30;99.90
52058;DHT22;38063;53.210;6.504;2024-01-25T01:02:16;6.30;99.90
52058;DHT22;38063;53.210;6.504;2024-01-25T01:04:42;6.30;99.90
52058;DHT22;38063;53.210;6.504;2024-01-25T01:07:08;6.30;99.90
52058;DHT22;38063;53.210;6.504;2024-01-25T01:09:34;6.30;99.90
52058;DHT22;38063;53.210;6.504;2024-01-25T01:12:00;6.20;99.90
52058;DHT22;38063;53.210;6.504;2024-01-25T01:14:25;6.20;99.90
52058;DHT22;38063;53.210;6.504;2024-01-25T01:16:51;6.20;99.90
52058;DHT22;38063;53.210;6.504;2024-01-25T01:19:17;6.20;99.90
52058;DHT22;38063;53.210;6.504;2024-01-25T01:21:43;6.20;99.90
52058;DHT22;38063;53.210;6.504;2024-01-25T01:24:12;6.10;99.90
52058;DHT22;38063;53.210;6.504;2024-01-25T01:26:38;6.10;99.90
52058;DHT22;38063;53.210;6.504;2024-01-25T01:29:04;6.10;99.90
52058;DHT22;38063;53.210;6.504;2024-01-25T01:31:30;6.20;99.90
52058;DHT22;38063;53.210;6.504;2024-01-25T01:33:55;6.20;99.90
52058;DHT22;38063;53.210;6.504;2024-01-25T01:36:21;6.20;99.90
52058;DHT22;38063;53.210;6.504;2024-01-25T01:38:47;6.10;99.90
52058;DHT22;38063;53.210;6.504;2024-01-25T01:41:13;6.10;99.90
52058;DHT22;38063;53.210;6.504;2024-01-25T01:43:39;6.10;99.90
52058;DHT22;38063;53.210;6.504;2024-01-25T01:46:10;6.10;99.90
52058;DHT22;38063;53.210;6.504;2024-01-25T01:48:40;6.10;99.90
52058;DHT22;38063;53.210;6.504;2024-01-25T01:51:06;6.10;99.90
52058;DHT22;38063;53.210;6.504;2024-01-25T01:53:33;6.80;99.90
52058;DHT22;38063;53.210;6.504;2024-01-25T01:55:59;6.10;99.90
52058;DHT22;38063;53.210;6.504;2024-01-25T01:58:26;6.10;99.90
52058;DHT22;38063;53.210;6.504;2024-01-25T02:00:53;6.00;99.90
52058;DHT22;38063;53.210;6.504;2024-01-25T02:03:19;6.10;99.90
52058;DHT22;38063;53.210;6.504;2024-01-25T02:05:45;6.10;99.90
52058;DHT22;38063;53.210;6.504;2024-01-25T02:08:11;6.10;99.90
52058;DHT22;38063;53.210;6.504;2024-01-25T02:10:36;6.10;99.90
52058;DHT22;38063;53.210;6.504;2024-01-25T02:13:02;6.00;99.90
52058;DHT22;38063;53.210;6.504;2024-01-25T02:15:27;6.00;99.90
52058;DHT22;38063;53.210;6.504;2024-01-25T02:17:53;6.00;99.90
52058;DHT22;38063;53.210;6.504;2024-01-25T02:20:19;6.00;99.90
52058;DHT22;38063;53.210;6.504;2024-01-25T02:22:44;6.00;99.90
52058;DHT22;38063;53.210;6.504;2024-01-25T02:25:10;6.00;99.90
52058;DHT22;38063;53.210;6.504;2024-01-25T02:27:36;6.00;99.90
52058;DHT22;38063;53.210;6.504;2024-01-25T02:30:06;6.00;99.90
52058;DHT22;38063;53.210;6.504;2024-01-25T02:32:32;6.10;99.90
52058;DHT22;38063;53.210;6.504;2024-01-25T02:34:58;5.90;99.90
52058;DHT22;38063;53.210;6.504;2024-01-25T02:37:24;5.90;99.90
52058;DHT22;38063;53.210;6.504;2024-01-25T02:39:50;5.80;99.90
52058;DHT22;38063;53.210;6.504;2024-01-25T02:42:16;5.80;99.90
52058;DHT22;38063;53.210;6.504;2024-01-25T02:44:43;5.80;99.90
52058;DHT22;38063;53.210;6.504;2024-01-25T02:47:08;5.80;99.90
52058;DHT22;38063;53.210;6.504;2024-01-25T02:49:34;5.80;99.90
52058;DHT22;38063;53.210;6.504;2024-01-25T02:52:00;5.70;99.90
52058;DHT22;38063;53.210;6.504;2024-01-25T02:54:26;5.70;99.90
52058;DHT22;38063;53.210;6.504;2024-01-25T02:56:52;5.70;99.90
52058;DHT22;38063;53.210;6.504;2024-01-25T02:59:17;6.30;99.90
52058;DHT22;38063;53.210;6.504;2024-01-25T03:01:44;5.80;99.90
52058;DHT22;38063;53.210;6.504;2024-01-25T03:04:10;5.60;99.90
52058;DHT22;38063;53.210;6.504;2024-01-25T03:06:36;5.60;99.90
52058;DHT22;38063;53.210;6.504;2024-01-25T03:09:02;5.70;99.90
52058;DHT22;38063;53.210;6.504;2024-01-25T03:11:31;5.80;99.90
52058;DHT22;38063;53.210;6.504;2024-01-25T03:13:56;5.50;99.90
52058;DHT22;38063;53.210;6.504;2024-01-25T03:16:22;5.50;99.90
52058;DHT22;38063;53.210;6.504;2024-01-25T03:18:48;5.40;99.90
52058;DHT22;38063;53.210;6.504;2024-01-25T03:21:13;5.40;99.90
52058;DHT22;38063;53.210;6.504;2024-01-25T03:23:39;5.40;99.90
52058;DHT22;38063;53.210;6.504;2024-01-25T03:26:05;5.40;99.90
52058;DHT22;38063;53.210;6.504;2024-01-25T03:28:31;5.40;99.90
52058;DHT22;38063;53.210;6.504;2024-01-25T03:30:57;5.40;99.90
52058;DHT22;38063;53.210;6.504;2024-01-25T03:33:22;5.30;99.90
52058;DHT22;38063;53.210;6.504;2024-01-25T03:35:48;5.30;99.90
52058;DHT22;38063;53.210;6.504;2024-01-25T03:38:14;5.30;99.90
52058;DHT22;38063;53.210;6.504;2024-01-25T03:40:39;5.30;99.90
52058;DHT22;38063;53.210;6.504;2024-01-25T03:43:05;5.20;99.90
52058;DHT22;38063;53.210;6.504;2024-01-25T03:45:31;5.20;99.90
52058;DHT22;38063;53.210;6.504;2024-01-25T03:47:58;5.20;99.90
52058;DHT22;38063;53.210;6.504;2024-01-25T03:50:24;5.20;99.90
52058;DHT22;38063;53.210;6.504;2024-01-25T03:52:49;5.20;99.90
52058;DHT22;38063;53.210;6.504;2024-01-25T03:55:15;5.20;99.90
52058;DHT22;38063;53.210;6.504;2024-01-25T03:57:41;5.10;99.90
52058;DHT22;38063;53.210;6.504;2024-01-25T04:00:08;5.10;99.90
52058;DHT22;38063;53.210;6.504;2024-01-25T04:02:34;5.10;99.90
52058;DHT22;38063;53.210;6.504;2024-01-25T04:05:00;5.10;99.90
52058;DHT22;38063;53.210;6.504;2024-01-25T04:07:25;5.00;99.90
52058;DHT22;38063;53.210;6.504;2024-01-25T04:09:51;5.00;99.90
52058;DHT22;38063;53.210;6.504;2024-01-25T04:12:17;5.20;99.90
52058;DHT22;38063;53.210;6.504;2024-01-25T04:14:42;5.00;99.90
52058;DHT22;38063;53.210;6.504;2024-01-25T04:17:08;5.00;99.90
52058;DHT22;38063;53.210;6.504;2024-01-25T04:19:36;5.00;99.90
52058;DHT22;38063;53.210;6.504;2024-01-25T04:22:01;4.90;99.90
52058;DHT22;38063;53.210;6.504;2024-01-25T04:24:27;4.90;99.90
52058;DHT22;38063;53.210;6.504;2024-01-25T04:26:53;5.30;99.90
52058;DHT22;38063;53.210;6.504;2024-01-25T04:29:18;4.90;99.90
52058;DHT22;38063;53.210;6.504;2024-01-25T04:31:45;4.90;99.90
52058;DHT22;38063;53.210;6.504;2024-01-25T04:34:13;5.00;99.90
52058;DHT22;38063;53.210;6.504;2024-01-25T04:36:38;4.90;99.90
52058;DHT22;38063;53.210;6.504;2024-01-25T04:39:04;4.90;99.90
52058;DHT22;38063;53.210;6.504;2024-01-25T04:41:30;4.90;99.90
52058;DHT22;38063;53.210;6.504;2024-01-25T04:43:55;4.80;99.90
52058;DHT22;38063;53.210;6.504;2024-01-25T04:46:21;4.90;99.90
52058;DHT22;38063;53.210;6.504;2024-01-25T04:48:47;4.80;99.90
52058;DHT22;38063;53.210;6.504;2024-01-25T04:51:19;4.80;99.90
52058;DHT22;38063;53.210;6.504;2024-01-25T04:53:48;4.80;99.90
52058;DHT22;38063;53.210;6.504;2024-01-25T04:56:14;4.90;99.90
52058;DHT22;38063;53.210;6.504;2024-01-25T04:58:39;4.80;99.90
52058;DHT22;38063;53.210;6.504;2024-01-25T05:01:05;4.80;99.90
52058;DHT22;38063;53.210;6.504;2024-01-25T05:03:32;5.10;99.90
52058;DHT22;38063;53.210;6.504;2024-01-25T05:05:58;4.80;99.90
52058;DHT22;38063;53.210;6.504;2024-01-25T05:08:24;4.70;99.90
52058;DHT22;38063;53.210;6.504;2024-01-25T05:10:49;4.70;99.90
52058;DHT22;38063;53.210;6.504;2024-01-25T05:13:15;4.80;99.90
52058;DHT22;38063;53.210;6.504;2024-01-25T05:15:41;4.70;99.90
52058;DHT22;38063;53.210;6.504;2024-01-25T05:18:07;4.70;99.90
52058;DHT22;38063;53.210;6.504;2024-01-25T05:20:33;4.70;99.90
52058;DHT22;38063;53.210;6.504;2024-01-25T05:23:01;4.70;99.90
52058;DHT22;38063;53.210;6.504;2024-01-25T05:25:26;4.70;99.90
52058;DHT22;38063;53.210;6.504;2024-01-25T05:27:53;4.70;99.90
52058;DHT22;38063;53.210;6.504;2024-01-25T05:30:20;4.70;99.90
52058;DHT22;38063;53.210;6.504;2024-01-25T05:32:46;4.70;99.90
52058;DHT22;38063;53.210;6.504;2024-01-25T05:35:14;4.60;99.90
52058;DHT22;38063;53.210;6.504;2024-01-25T05:37:39;4.60;99.90
52058;DHT22;38063;53.210;6.504;2024-01-25T05:40:05;4.60;99.90
52058;DHT22;38063;53.210;6.504;2024-01-25T05:42:33;4.70;99.90
52058;DHT22;38063;53.210;6.504;2024-01-25T05:44:58;4.60;99.90
52058;DHT22;38063;53.210;6.504;2024-01-25T05:47:24;4.60;99.90
52058;DHT22;38063;53.210;6.504;2024-01-25T05:49:51;4.60;99.90
52058;DHT22;38063;53.210;6.504;2024-01-25T05:52:16;4.60;99.90
52058;DHT22;38063;53.210;6.504;2024-01-25T05:54:42;4.50;99.90
52058;DHT22;38063;53.210;6.504;2024-01-25T05:57:09;4.60;99.90
52058;DHT22;38063;53.210;6.504;2024-01-25T05:59:35;4.50;99.90
52058;DHT22;38063;53.210;6.504;2024-01-25T06:02:00;4.40;99.90
52058;DHT22;38063;53.210;6.504;2024-01-25T06:04:26;4.50;99.90
52058;DHT22;38063;53.210;6.504;2024-01-25T06:06:52;4.50;99.90
52058;DHT22;38063;53.210;6.504;2024-01-25T06:09:17;4.40;99.90
52058;DHT22;38063;53.210;6.504;2024-01-25T06:11:43;4.40;99.90
52058;DHT22;38063;53.210;6.504;2024-01-25T06:14:09;4.40;99.90
52058;DHT22;38063;53.210;6.504;2024-01-25T06:16:35;4.50;99.90
52058;DHT22;38063;53.210;6.504;2024-01-25T06:19:01;4.40;99.90
52058;DHT22;38063;53.210;6.504;2024-01-25T06:21:27;4.40;99.90
52058;DHT22;38063;53.210;6.504;2024-01-25T06:23:53;4.30;99.90
52058;DHT22;38063;53.210;6.504;2024-01-25T06:26:19;4.40;99.90
52058;DHT22;38063;53.210;6.504;2024-01-25T06:28:44;4.30;99.90
52058;DHT22;38063;53.210;6.504;2024-01-25T06:31:11;4.30;99.90
52058;DHT22;38063;53.210;6.504;2024-01-25T06:33:36;4.90;99.90
52058;DHT22;38063;53.210;6.504;2024-01-25T06:36:02;4.40;99.90
52058;DHT22;38063;53.210;6.504;2024-01-25T06:38:28;4.10;99.90
52058;DHT22;38063;53.210;6.504;2024-01-25T06:40:53;4.10;99.90
52058;DHT22;38063;53.210;6.504;2024-01-25T06:43:19;4.00;99.90
52058;DHT22;38063;53.210;6.504;2024-01-25T06:45:45;4.40;99.90
52058;DHT22;38063;53.210;6.504;2024-01-25T06:48:11;4.00;99.90
52058;DHT22;38063;53.210;6.504;2024-01-25T06:50:36;3.90;99.90
52058;DHT22;38063;53.210;6.504;2024-01-25T06:53:03;3.90;99.90
52058;DHT22;38063;53.210;6.504;2024-01-25T06:55:29;3.90;99.90
52058;DHT22;38063;53.210;6.504;2024-01-25T06:57:54;3.80;99.90
52058;DHT22;38063;53.210;6.504;2024-01-25T07:00:20;3.80;99.90
52058;DHT22;38063;53.210;6.504;2024-01-25T07:02:46;3.90;99.90
52058;DHT22;38063;53.210;6.504;2024-01-25T07:05:12;4.30;99.90
52058;DHT22;38063;53.210;6.504;2024-01-25T07:07:38;3.80;99.90
52058;DHT22;38063;53.210;6.504;2024-01-25T07:10:06;3.80;99.90
52058;DHT22;38063;53.210;6.504;2024-01-25T07:12:32;3.80;99.90
52058;DHT22;38063;53.210;6.504;2024-01-25T07:14:58;3.80;99.90
52058;DHT22;38063;53.210;6.504;2024-01-25T07:17:23;3.80;99.90
52058;DHT22;38063;53.210;6.504;2024-01-25T07:19:49;3.80;99.90
52058;DHT22;38063;53.210;6.504;2024-01-25T07:22:15;3.80;99.90
52058;DHT22;38063;53.210;6.504;2024-01-25T07:24:42;3.80;99.90
52058;DHT22;38063;53.210;6.504;2024-01-25T07:27:08;3.80;99.90
52058;DHT22;38063;53.210;6.504;2024-01-25T07:29:36;3.70;99.90
52058;DHT22;38063;53.210;6.504;2024-01-25T07:32:02;3.70;99.90
52058;DHT22;38063;53.210;6.504;2024-01-25T07:34:28;3.70;99.90
52058;DHT22;38063;53.210;6.504;2024-01-25T07:36:54;3.70;99.90
52058;DHT22;38063;53.210;6.504;2024-01-25T07:39:19;3.70;99.90
52058;DHT22;38063;53.210;6.504;2024-01-25T07:41:45;3.70;99.90
52058;DHT22;38063;53.210;6.504;2024-01-25T07:44:11;3.70;99.90
52058;DHT22;38063;53.210;6.504;2024-01-25T07:46:36;3.70;99.90
52058;DHT22;38063;53.210;6.504;2024-01-25T07:49:02;3.70;99.90
52058;DHT22;38063;53.210;6.504;2024-01-25T07:51:28;3.70;99.90
52058;DHT22;38063;53.210;6.504;2024-01-25T07:53:54;3.70;99.90
52058;DHT22;38063;53.210;6.504;2024-01-25T07:56:20;3.80;99.90
52058;DHT22;38063;53.210;6.504;2024-01-25T07:58:50;3.80;99.90
52058;DHT22;38063;53.210;6.504;2024-01-25T08:01:19;3.80;99.90
52058;DHT22;38063;53.210;6.504;2024-01-25T08:03:45;3.80;99.90
52058;DHT22;38063;53.210;6.504;2024-01-25T08:06:11;3.70;99.90
52058;DHT22;38063;53.210;6.504;2024-01-25T08:08:36;3.80;99.90
52058;DHT22;38063;53.210;6.504;2024-01-25T08:11:02;3.70;99.90
52058;DHT22;38063;53.210;6.504;2024-01-25T08:13:29;3.80;99.90
52058;DHT22;38063;53.210;6.504;2024-01-25T08:15:56;3.80;99.90
52058;DHT22;38063;53.210;6.504;2024-01-25T08:18:21;3.80;99.90
52058;DHT22;38063;53.210;6.504;2024-01-25T08:20:48;3.80;99.90
52058;DHT22;38063;53.210;6.504;2024-01-25T08:23:14;3.90;99.90
52058;DHT22;38063;53.210;6.504;2024-01-25T08:25:40;3.80;99.90
52058;DHT22;38063;53.210;6.504;2024-01-25T08:28:06;3.90;99.90
52058;DHT22;38063;53.210;6.504;2024-01-25T08:30:32;3.90;99.90
52058;DHT22;38063;53.210;6.504;2024-01-25T08:32:59;3.90;99.90
52058;DHT22;38063;53.210;6.504;2024-01-25T08:35:25;4.00;99.90
52058;DHT22;38063;53.210;6.504;2024-01-25T08:37:51;4.00;99.90
52058;DHT22;38063;53.210;6.504;2024-01-25T08:40:17;4.10;99.90
52058;DHT22;38063;53.210;6.504;2024-01-25T08:42:42;4.10;99.90
52058;DHT22;38063;53.210;6.504;2024-01-25T08:45:08;4.10;99.90
52058;DHT22;38063;53.210;6.504;2024-01-25T08:47:37;4.10;99.90
52058;DHT22;38063;53.210;6.504;2024-01-25T08:50:04;4.10;99.90
52058;DHT22;38063;53.210;6.504;2024-01-25T08:52:31;4.20;99.90
52058;DHT22;38063;53.210;6.504;2024-01-25T08:54:56;6.00;99.90
52058;DHT22;38063;53.210;6.504;2024-01-25T08:57:22;4.60;99.90
52058;DHT22;38063;53.210;6.504;2024-01-25T08:59:48;4.30;99.90
52058;DHT22;38063;53.210;6.504;2024-01-25T09:02:13;4.30;99.90
52058;DHT22;38063;53.210;6.504;2024-01-25T09:04:39;4.90;99.90
52058;DHT22;38063;53.210;6.504;2024-01-25T09:07:08;4.30;99.90
52058;DHT22;38063;53.210;6.504;2024-01-25T09:09:34;4.40;99.90
52058;DHT22;38063;53.210;6.504;2024-01-25T09:11:59;4.50;99.90
52058;DHT22;38063;53.210;6.504;2024-01-25T09:14:25;4.40;99.90
52058;DHT22;38063;53.210;6.504;2024-01-25T09:16:51;4.50;99.90
52058;DHT22;38063;53.210;6.504;2024-01-25T09:19:16;4.50;99.90
52058;DHT22;38063;53.210;6.504;2024-01-25T09:21:42;4.50;99.90
52058;DHT22;38063;53.210;6.504;2024-01-25T09:24:08;4.60;99.90
52058;DHT22;38063;53.210;6.504;2024-01-25T09:26:33;4.60;99.90
52058;DHT22;38063;53.210;6.504;2024-01-25T09:28:59;4.70;99.90
52058;DHT22;38063;53.210;6.504;2024-01-25T09:31:25;4.70;99.90
52058;DHT22;38063;53.210;6.504;2024-01-25T09:33:51;4.70;99.90
52058;DHT22;38063;53.210;6.504;2024-01-25T09:36:17;4.80;99.90
52058;DHT22;38063;53.210;6.504;2024-01-25T09:38:43;4.80;99.90
52058;DHT22;38063;53.210;6.504;2024-01-25T09:41:08;4.80;99.90
52058;DHT22;38063;53.210;6.504;2024-01-25T09:43:35;4.90;99.90
52058;DHT22;38063;53.210;6.504;2024-01-25T09:46:02;5.00;99.90
52058;DHT22;38063;53.210;6.504;2024-01-25T09:48:28;5.00;99.90
52058;DHT22;38063;53.210;6.504;2024-01-25T09:50:55;5.00;99.90
52058;DHT22;38063;53.210;6.504;2024-01-25T09:53:22;5.10;99.90
52058;DHT22;38063;53.210;6.504;2024-01-25T09:58:23;5.20;99.90
52058;DHT22;38063;53.210;6.504;2024-01-25T10:00:50;5.20;99.90
52058;DHT22;38063;53.210;6.504;2024-01-25T10:03:15;5.20;99.90
52058;DHT22;38063;53.210;6.504;2024-01-25T10:05:41;5.20;99.90
52058;DHT22;38063;53.210;6.504;2024-01-25T10:08:12;5.30;99.90
52058;DHT22;38063;53.210;6.504;2024-01-25T10:10:38;5.30;99.90
52058;DHT22;38063;53.210;6.504;2024-01-25T10:13:04;5.30;99.90
52058;DHT22;38063;53.210;6.504;2024-01-25T10:15:30;5.30;99.90
52058;DHT22;38063;53.210;6.504;2024-01-25T10:17:56;5.40;99.90
52058;DHT22;38063;53.210;6.504;2024-01-25T10:20:23;5.40;99.90
52058;DHT22;38063;53.210;6.504;2024-01-25T10:22:51;5.50;99.90
52058;DHT22;38063;53.210;6.504;2024-01-25T10:25:17;5.50;99.90
52058;DHT22;38063;53.210;6.504;2024-01-25T10:27:43;5.50;99.90
52058;DHT22;38063;53.210;6.504;2024-01-25T10:30:10;5.50;99.90
52058;DHT22;38063;53.210;6.504;2024-01-25T10:32:36;5.50;99.90
52058;DHT22;38063;53.210;6.504;2024-01-25T10:35:02;5.50;99.90
52058;DHT22;38063;53.210;6.504;2024-01-25T10:37:28;5.60;99.90
52058;DHT22;38063;53.210;6.504;2024-01-25T10:39:55;5.50;99.90
52058;DHT22;38063;53.210;6.504;2024-01-25T10:42:21;5.50;99.90
52058;DHT22;38063;53.210;6.504;2024-01-25T10:44:47;5.60;99.90
52058;DHT22;38063;53.210;6.504;2024-01-25T10:47:13;5.50;99.90
52058;DHT22;38063;53.210;6.504;2024-01-25T10:49:38;5.60;99.90
52058;DHT22;38063;53.210;6.504;2024-01-25T10:52:06;5.70;99.90
52058;DHT22;38063;53.210;6.504;2024-01-25T10:54:32;5.70;99.90
52058;DHT22;38063;53.210;6.504;2024-01-25T10:56:58;5.70;99.90
52058;DHT22;38063;53.210;6.504;2024-01-25T10:59:25;5.70;99.90
52058;DHT22;38063;53.210;6.504;2024-01-25T11:01:51;5.80;99.90
52058;DHT22;38063;53.210;6.504;2024-01-25T11:04:19;5.80;99.90
52058;DHT22;38063;53.210;6.504;2024-01-25T11:06:45;5.90;99.90
52058;DHT22;38063;53.210;6.504;2024-01-25T11:09:17;5.90;99.90
52058;DHT22;38063;53.210;6.504;2024-01-25T11:11:46;6.00;99.90
52058;DHT22;38063;53.210;6.504;2024-01-25T11:14:13;6.00;99.90
52058;DHT22;38063;53.210;6.504;2024-01-25T11:16:40;6.10;99.90
52058;DHT22;38063;53.210;6.504;2024-01-25T11:19:17;6.10;99.90
52058;DHT22;38063;53.210;6.504;2024-01-25T11:21:44;6.20;99.90
52058;DHT22;38063;53.210;6.504;2024-01-25T11:24:20;6.20;99.90
52058;DHT22;38063;53.210;6.504;2024-01-25T11:26:47;6.20;99.90
52058;DHT22;38063;53.210;6.504;2024-01-25T11:29:14;6.40;99.90
52058;DHT22;38063;53.210;6.504;2024-01-25T11:31:44;6.40;99.90
52058;DHT22;38063;53.210;6.504;2024-01-25T11:34:11;6.50;99.90
52058;DHT22;38063;53.210;6.504;2024-01-25T11:36:37;6.50;99.90
52058;DHT22;38063;53.210;6.504;2024-01-25T11:39:03;6.60;99.90
52058;DHT22;38063;53.210;6.504;2024-01-25T11:41:31;6.60;99.90
52058;DHT22;38063;53.210;6.504;2024-01-25T11:43:57;7.00;99.90
52058;DHT22;38063;53.210;6.504;2024-01-25T11:46:23;6.60;99.90
52058;DHT22;38063;53.210;6.504;2024-01-25T11:48:50;6.60;99.90
52058;DHT22;38063;53.210;6.504;2024-01-25T11:51:15;6.80;99.90
52058;DHT22;38063;53.210;6.504;2024-01-25T11:53:41;6.60;99.90
52058;DHT22;38063;53.210;6.504;2024-01-25T11:56:09;6.60;99.90
52058;DHT22;38063;53.210;6.504;2024-01-25T11:58:37;6.70;99.90
52058;DHT22;38063;53.210;6.504;2024-01-25T12:01:04;6.70;99.90
52058;DHT22;38063;53.210;6.504;2024-01-25T12:03:34;6.70;99.90
52058;DHT22;38063;53.210;6.504;2024-01-25T12:06:01;6.80;99.90
52058;DHT22;38063;53.210;6.504;2024-01-25T12:08:27;6.80;99.90
52058;DHT22;38063;53.210;6.504;2024-01-25T12:11:03;6.90;99.90
52058;DHT22;38063;53.210;6.504;2024-01-25T12:13:32;7.00;99.90
52058;DHT22;38063;53.210;6.504;2024-01-25T12:15:58;7.00;99.90
52058;DHT22;38063;53.210;6.504;2024-01-25T12:18:24;7.00;99.90
52058;DHT22;38063;53.210;6.504;2024-01-25T12:20:50;7.00;99.90
52058;DHT22;38063;53.210;6.504;2024-01-25T12:23:16;7.10;99.90
52058;DHT22;38063;53.210;6.504;2024-01-25T12:25:41;7.10;99.90
52058;DHT22;38063;53.210;6.504;2024-01-25T12:28:07;7.20;99.90
52058;DHT22;38063;53.210;6.504;2024-01-25T12:30:32;7.70;99.90
52058;DHT22;38063;53.210;6.504;2024-01-25T12:32:58;7.30;99.90
52058;DHT22;38063;53.210;6.504;2024-01-25T12:35:24;7.40;99.90
52058;DHT22;38063;53.210;6.504;2024-01-25T12:37:49;7.40;99.90
52058;DHT22;38063;53.210;6.504;2024-01-25T12:40:15;7.50;99.90
52058;DHT22;38063;53.210;6.504;2024-01-25T12:42:41;7.50;99.90
52058;DHT22;38063;53.210;6.504;2024-01-25T12:45:07;7.50;99.90
52058;DHT22;38063;53.210;6.504;2024-01-25T12:47:32;7.60;99.90
52058;DHT22;38063;53.210;6.504;2024-01-25T12:49:58;7.60;99.90
52058;DHT22;38063;53.210;6.504;2024-01-25T12:52:23;7.60;99.90
52058;DHT22;38063;53.210;6.504;2024-01-25T12:54:49;7.60;99.90
52058;DHT22;38063;53.210;6.504;2024-01-25T12:57:15;7.60;99.90
52058;DHT22;38063;53.210;6.504;2024-01-25T12:59:40;7.60;99.90
52058;DHT22;38063;53.210;6.504;2024-01-25T13:02:07;8.10;99.90
52058;DHT22;38063;53.210;6.504;2024-01-25T13:04:33;7.60;99.90
52058;DHT22;38063;53.210;6.504;2024-01-25T13:06:58;7.60;99.90
52058;DHT22;38063;53.210;6.504;2024-01-25T13:09:24;7.60;99.90
52058;DHT22;38063;53.210;6.504;2024-01-25T13:11:50;7.60;99.90
52058;DHT22;38063;53.210;6.504;2024-01-25T13:14:19;7.60;99.90
52058;DHT22;38063;53.210;6.504;2024-01-25T13:16:45;7.60;99.90
52058;DHT22;38063;53.210;6.504;2024-01-25T13:19:11;7.60;99.90
52058;DHT22;38063;53.210;6.504;2024-01-25T13:21:40;7.50;99.90
52058;DHT22;38063;53.210;6.504;2024-01-25T13:24:06;7.50;99.90
52058;DHT22;38063;53.210;6.504;2024-01-25T13:26:32;7.50;99.90
52058;DHT22;38063;53.210;6.504;2024-01-25T13:28:58;7.50;99.90
52058;DHT22;38063;53.210;6.504;2024-01-25T13:31:23;7.60;99.90
52058;DHT22;38063;53.210;6.504;2024-01-25T13:33:49;7.60;99.90
52058;DHT22;38063;53.210;6.504;2024-01-25T13:36:15;7.60;99.90
52058;DHT22;38063;53.210;6.504;2024-01-25T13:38:40;7.70;99.90
52058;DHT22;38063;53.210;6.504;2024-01-25T13:41:06;8.00;99.90
52058;DHT22;38063;53.210;6.504;2024-01-25T13:43:32;7.70;99.90
52058;DHT22;38063;53.210;6.504;2024-01-25T13:45:58;7.70;99.90
52058;DHT22;38063;53.210;6.504;2024-01-25T13:48:23;7.70;99.90
52058;DHT22;38063;53.210;6.504;2024-01-25T13:50:49;7.70;99.90
52058;DHT22;38063;53.210;6.504;2024-01-25T13:53:14;8.00;99.90
52058;DHT22;38063;53.210;6.504;2024-01-25T13:55:40;7.70;99.90
52058;DHT22;38063;53.210;6.504;2024-01-25T13:58:06;7.70;99.90
52058;DHT22;38063;53.210;6.504;2024-01-25T14:00:31;8.60;99.90
52058;DHT22;38063;53.210;6.504;2024-01-25T14:02:57;7.80;99.90
52058;DHT22;38063;53.210;6.504;2024-01-25T14:05:23;7.70;99.90
52058;DHT22;38063;53.210;6.504;2024-01-25T14:07:48;7.70;99.90
52058;DHT22;38063;53.210;6.504;2024-01-25T14:10:14;7.70;99.90
52058;DHT22;38063;53.210;6.504;2024-01-25T14:12:40;7.70;99.90
52058;DHT22;38063;53.210;6.504;2024-01-25T14:15:06;7.70;99.90
52058;DHT22;38063;53.210;6.504;2024-01-25T14:17:32;7.70;99.90
52058;DHT22;38063;53.210;6.504;2024-01-25T14:19:58;7.70;99.90
52058;DHT22;38063;53.210;6.504;2024-01-25T14:22:23;7.70;99.90
52058;DHT22;38063;53.210;6.504;2024-01-25T14:24:49;7.70;99.90
52058;DHT22;38063;53.210;6.504;2024-01-25T14:27:15;7.60;99.90
52058;DHT22;38063;53.210;6.504;2024-01-25T14:29:40;7.50;99.90
52058;DHT22;38063;53.210;6.504;2024-01-25T14:32:06;7.50;99.90
52058;DHT22;38063;53.210;6.504;2024-01-25T14:34:32;7.50;99.90
52058;DHT22;38063;53.210;6.504;2024-01-25T14:36:57;7.40;99.90
52058;DHT22;38063;53.210;6.504;2024-01-25T14:39:24;7.50;99.90
52058;DHT22;38063;53.210;6.504;2024-01-25T14:41:50;7.40;99.90
52058;DHT22;38063;53.210;6.504;2024-01-25T14:44:15;7.40;99.90
52058;DHT22;38063;53.210;6.504;2024-01-25T14:46:41;7.40;99.90
52058;DHT22;38063;53.210;6.504;2024-01-25T14:49:07;7.30;99.90
52058;DHT22;38063;53.210;6.504;2024-01-25T14:51:32;7.30;99.90
52058;DHT22;38063;53.210;6.504;2024-01-25T14:53:58;7.20;99.90
52058;DHT22;38063;53.210;6.504;2024-01-25T14:56:24;7.20;99.90
52058;DHT22;38063;53.210;6.504;2024-01-25T14:58:49;7.10;99.90
52058;DHT22;38063;53.210;6.504;2024-01-25T15:01:15;7.10;99.90
52058;DHT22;38063;53.210;6.504;2024-01-25T15:03:44;7.00;99.90
52058;DHT22;38063;53.210;6.504;2024-01-25T15:06:11;6.90;99.90
52058;DHT22;38063;53.210;6.504;2024-01-25T15:08:37;6.90;99.90
52058;DHT22;38063;53.210;6.504;2024-01-25T15:11:02;6.80;99.90
52058;DHT22;38063;53.210;6.504;2024-01-25T15:13:28;6.80;99.90
52058;DHT22;38063;53.210;6.504;2024-01-25T15:15:54;6.80;99.90
52058;DHT22;38063;53.210;6.504;2024-01-25T15:18:19;6.80;99.90
52058;DHT22;38063;53.210;6.504;2024-01-25T15:20:46;6.80;99.90
52058;DHT22;38063;53.210;6.504;2024-01-25T15:23:12;6.80;99.90
52058;DHT22;38063;53.210;6.504;2024-01-25T15:25:38;6.70;99.90
52058;DHT22;38063;53.210;6.504;2024-01-25T15:28:04;6.70;99.90
52058;DHT22;38063;53.210;6.504;2024-01-25T15:30:29;6.70;99.90
52058;DHT22;38063;53.210;6.504;2024-01-25T15:32:55;6.70;99.90
52058;DHT22;38063;53.210;6.504;2024-01-25T15:35:22;6.60;99.90
52058;DHT22;38063;53.210;6.504;2024-01-25T15:37:48;6.60;99.90
52058;DHT22;38063;53.210;6.504;2024-01-25T15:40:13;6.70;99.90